sensor_id;sensor_type;location;lat;lon;timestamp;pressure;altitude;pressure_sealevel;temperature;humidity
10176;BME280;18221;38.704;0.152;2023-07-31T00:13:13;99017.28;;;33.53;45.61
10176;BME280;18221;38.704;0.152;2023-07-31T00:15:41;99013.75;;;33.48;45.94
10176;BME280;18221;38.704;0.152;2023-07-31T00:18:09;99017.56;;;33.57;46.02
10176;BME280;18221;38.704;0.152;2023-07-31T00:20:37;99012.91;;;33.52;46.05
10176;BME280;18221;38.704;0.152;2023-07-31T00:23:05;99012.97;;;33.47;45.81
10176;BME280;18221;38.704;0.152;2023-07-31T00:25:33;99015.25;;;33.35;46.00
10176;BME280;18221;38.704;0.152;2023-07-31T00:28:02;99015.53;;;33.34;46.65
10176;BME280;18221;38.704;0.152;2023-07-31T00:30:32;99008.94;;;33.30;46.45
10176;BME280;18221;38.704;0.152;2023-07-31T00:33:00;99010.56;;;33.36;46.47
10176;BME280;18221;38.704;0.152;2023-07-31T00:35:28;99004.53;;;33.34;46.60
10176;BME280;18221;38.704;0.152;2023-07-31T00:37:59;99011.63;;;33.40;45.99
10176;BME280;18221;38.704;0.152;2023-07-31T00:40:27;99003.34;;;33.45;45.96
10176;BME280;18221;38.704;0.152;2023-07-31T00:42:56;99008.25;;;33.48;45.93
10176;BME280;18221;38.704;0.152;2023-07-31T00:45:24;99010.00;;;33.39;46.35
10176;BME280;18221;38.704;0.152;2023-07-31T00:47:55;99007.03;;;33.30;46.27
10176;BME280;18221;38.704;0.152;2023-07-31T00:50:25;99000.50;;;33.21;46.79
10176;BME280;18221;38.704;0.152;2023-07-31T00:52:53;98997.72;;;33.26;46.66
10176;BME280;18221;38.704;0.152;2023-07-31T00:55:22;98997.97;;;33.25;46.44
10176;BME280;18221;38.704;0.152;2023-07-31T00:57:52;99005.66;;;33.28;46.73
10176;BME280;18221;38.704;0.152;2023-07-31T01:00:22;99003.50;;;33.25;46.46
10176;BME280;18221;38.704;0.152;2023-07-31T01:02:51;98998.25;;;33.28;46.26
10176;BME280;18221;38.704;0.152;2023-07-31T01:05:32;98994.88;;;33.36;46.63
10176;BME280;18221;38.704;0.152;2023-07-31T01:08:12;98995.16;;;33.35;46.37
10176;BME280;18221;38.704;0.152;2023-07-31T01:10:51;98988.63;;;33.26;46.19
10176;BME280;18221;38.704;0.152;2023-07-31T01:13:23;98987.53;;;33.27;46.38
10176;BME280;18221;38.704;0.152;2023-07-31T01:15:51;98993.84;;;33.27;46.74
10176;BME280;18221;38.704;0.152;2023-07-31T01:18:19;98991.38;;;33.26;46.73
10176;BME280;18221;38.704;0.152;2023-07-31T01:21:03;98995.00;;;33.21;46.77
10176;BME280;18221;38.704;0.152;2023-07-31T01:24:02;98989.69;;;33.30;46.80
10176;BME280;18221;38.704;0.152;2023-07-31T01:26:38;98982.50;;;33.34;46.53
10176;BME280;18221;38.704;0.152;2023-07-31T01:29:16;98967.56;;;33.40;46.63
10176;BME280;18221;38.704;0.152;2023-07-31T01:31:50;98977.28;;;33.32;46.40
10176;BME280;18221;38.704;0.152;2023-07-31T01:34:22;98984.19;;;33.30;46.38
10176;BME280;18221;38.704;0.152;2023-07-31T01:36:50;98974.25;;;33.34;46.20
10176;BME280;18221;38.704;0.152;2023-07-31T01:39:20;98978.09;;;33.33;46.39
10176;BME280;18221;38.704;0.152;2023-07-31T01:41:50;98977.06;;;33.29;46.28
10176;BME280;18221;38.704;0.152;2023-07-31T01:44:19;98972.03;;;33.36;46.28
10176;BME280;18221;38.704;0.152;2023-07-31T01:46:47;98975.81;;;33.45;46.38
10176;BME280;18221;38.704;0.152;2023-07-31T01:49:15;98976.97;;;33.39;46.43
10176;BME280;18221;38.704;0.152;2023-07-31T01:51:43;98973.63;;;33.42;46.63
10176;BME280;18221;38.704;0.152;2023-07-31T01:54:12;98972.50;;;33.43;46.68
10176;BME280;18221;38.704;0.152;2023-07-31T01:56:40;98969.81;;;33.38;46.15
10176;BME280;18221;38.704;0.152;2023-07-31T01:59:10;98970.97;;;33.32;46.26
10176;BME280;18221;38.704;0.152;2023-07-31T02:01:38;98970.31;;;33.40;46.16
10176;BME280;18221;38.704;0.152;2023-07-31T02:04:06;98963.78;;;33.36;46.08
10176;BME280;18221;38.704;0.152;2023-07-31T02:06:35;98967.09;;;33.33;46.60
10176;BME280;18221;38.704;0.152;2023-07-31T02:09:03;98964.88;;;33.35;46.66
10176;BME280;18221;38.704;0.152;2023-07-31T02:11:31;98968.28;;;33.27;46.65
10176;BME280;18221;38.704;0.152;2023-07-31T02:14:00;98965.53;;;33.27;46.43
10176;BME280;18221;38.704;0.152;2023-07-31T02:16:29;98963.81;;;33.31;46.39
10176;BME280;18221;38.704;0.152;2023-07-31T02:18:57;98966.88;;;33.24;46.84
10176;BME280;18221;38.704;0.152;2023-07-31T02:21:26;98964.13;;;33.24;46.65
10176;BME280;18221;38.704;0.152;2023-07-31T02:23:54;98958.78;;;33.38;46.71
10176;BME280;18221;38.704;0.152;2023-07-31T02:26:23;98957.38;;;33.40;46.62
10176;BME280;18221;38.704;0.152;2023-07-31T02:28:51;98960.50;;;33.34;46.46
10176;BME280;18221;38.704;0.152;2023-07-31T02:31:19;98958.56;;;33.34;46.40
10176;BME280;18221;38.704;0.152;2023-07-31T02:33:48;98958.88;;;33.28;46.36
10176;BME280;18221;38.704;0.152;2023-07-31T02:36:17;98952.38;;;33.19;46.79
10176;BME280;18221;38.704;0.152;2023-07-31T02:38:45;98966.44;;;33.12;46.82
10176;BME280;18221;38.704;0.152;2023-07-31T02:41:13;98962.06;;;33.06;46.96
10176;BME280;18221;38.704;0.152;2023-07-31T02:43:44;98963.44;;;33.04;47.28
10176;BME280;18221;38.704;0.152;2023-07-31T02:46:12;98964.59;;;32.97;47.35
10176;BME280;18221;38.704;0.152;2023-07-31T02:48:40;98969.59;;;32.95;47.40
10176;BME280;18221;38.704;0.152;2023-07-31T02:51:10;98972.03;;;32.97;47.02
10176;BME280;18221;38.704;0.152;2023-07-31T02:53:38;98970.09;;;32.97;47.06
10176;BME280;18221;38.704;0.152;2023-07-31T02:56:07;98966.31;;;32.88;47.61
10176;BME280;18221;38.704;0.152;2023-07-31T02:58:35;98962.94;;;32.96;47.04
10176;BME280;18221;38.704;0.152;2023-07-31T03:01:03;98966.00;;;32.95;47.11
10176;BME280;18221;38.704;0.152;2023-07-31T03:03:32;98969.81;;;33.04;47.01
10176;BME280;18221;38.704;0.152;2023-07-31T03:06:00;98962.34;;;33.10;46.95
10176;BME280;18221;38.704;0.152;2023-07-31T03:08:30;98959.31;;;33.11;47.06
10176;BME280;18221;38.704;0.152;2023-07-31T03:11:00;98960.97;;;33.07;46.93
10176;BME280;18221;38.704;0.152;2023-07-31T03:13:28;98955.47;;;33.07;47.16
10176;BME280;18221;38.704;0.152;2023-07-31T03:15:57;98953.28;;;33.04;47.11
10176;BME280;18221;38.704;0.152;2023-07-31T03:18:25;98955.78;;;33.06;47.17
10176;BME280;18221;38.704;0.152;2023-07-31T03:20:53;98962.28;;;33.15;46.83
10176;BME280;18221;38.704;0.152;2023-07-31T03:23:22;98960.28;;;33.25;46.53
10176;BME280;18221;38.704;0.152;2023-07-31T03:26:00;98958.53;;;33.39;46.37
10176;BME280;18221;38.704;0.152;2023-07-31T03:28:29;98945.31;;;33.36;46.11
10176;BME280;18221;38.704;0.152;2023-07-31T03:30:58;98946.38;;;33.40;46.09
10176;BME280;18221;38.704;0.152;2023-07-31T03:33:26;98946.63;;;33.44;45.97
10176;BME280;18221;38.704;0.152;2023-07-31T03:35:54;98946.63;;;33.44;45.75
10176;BME280;18221;38.704;0.152;2023-07-31T03:38:23;98947.25;;;33.36;45.88
10176;BME280;18221;38.704;0.152;2023-07-31T03:40:51;98947.03;;;33.27;46.23
10176;BME280;18221;38.704;0.152;2023-07-31T03:43:20;98954.16;;;33.33;46.02
10176;BME280;18221;38.704;0.152;2023-07-31T03:45:49;98960.50;;;33.34;45.94
10176;BME280;18221;38.704;0.152;2023-07-31T03:48:17;98956.59;;;33.35;45.82
10176;BME280;18221;38.704;0.152;2023-07-31T03:50:45;98957.16;;;33.37;45.46
10176;BME280;18221;38.704;0.152;2023-07-31T03:53:14;98955.50;;;33.36;45.90
10176;BME280;18221;38.704;0.152;2023-07-31T03:55:42;98959.91;;;33.37;45.90
10176;BME280;18221;38.704;0.152;2023-07-31T03:58:10;98957.44;;;33.35;45.52
10176;BME280;18221;38.704;0.152;2023-07-31T04:00:41;98955.81;;;33.34;45.66
10176;BME280;18221;38.704;0.152;2023-07-31T04:03:09;98956.38;;;33.31;46.20
10176;BME280;18221;38.704;0.152;2023-07-31T04:05:39;98954.47;;;33.32;46.15
10176;BME280;18221;38.704;0.152;2023-07-31T04:08:07;98958.88;;;33.28;46.21
10176;BME280;18221;38.704;0.152;2023-07-31T04:10:35;98958.97;;;33.18;46.13
10176;BME280;18221;38.704;0.152;2023-07-31T04:13:03;98969.16;;;33.17;46.21
10176;BME280;18221;38.704;0.152;2023-07-31T04:15:32;98968.59;;;33.20;46.40
10176;BME280;18221;38.704;0.152;2023-07-31T04:18:01;98966.13;;;33.19;46.30
10176;BME280;18221;38.704;0.152;2023-07-31T04:20:29;98965.31;;;33.18;46.32
10176;BME280;18221;38.704;0.152;2023-07-31T04:22:58;98964.22;;;33.14;46.51
10176;BME280;18221;38.704;0.152;2023-07-31T04:25:26;98963.16;;;33.10;46.57
10176;BME280;18221;38.704;0.152;2023-07-31T04:27:54;98966.78;;;33.06;46.73
10176;BME280;18221;38.704;0.152;2023-07-31T04:30:22;98967.28;;;33.13;46.36
10176;BME280;18221;38.704;0.152;2023-07-31T04:32:50;98966.94;;;33.19;46.49
10176;BME280;18221;38.704;0.152;2023-07-31T04:35:20;98966.09;;;33.24;45.94
10176;BME280;18221;38.704;0.152;2023-07-31T04:37:48;98966.88;;;33.24;46.36
10176;BME280;18221;38.704;0.152;2023-07-31T04:40:17;98964.47;;;33.18;46.62
10176;BME280;18221;38.704;0.152;2023-07-31T04:42:45;98965.53;;;33.22;46.44
10176;BME280;18221;38.704;0.152;2023-07-31T04:45:13;98963.94;;;33.16;46.47
10176;BME280;18221;38.704;0.152;2023-07-31T04:47:42;98964.47;;;33.18;46.59
10176;BME280;18221;38.704;0.152;2023-07-31T04:50:10;98971.03;;;33.22;46.54
10176;BME280;18221;38.704;0.152;2023-07-31T04:52:40;98968.00;;;33.23;46.41
10176;BME280;18221;38.704;0.152;2023-07-31T04:55:09;98964.13;;;33.24;46.50
10176;BME280;18221;38.704;0.152;2023-07-31T04:57:37;98969.44;;;33.16;46.66
10176;BME280;18221;38.704;0.152;2023-07-31T05:00:07;98971.47;;;33.05;46.74
10176;BME280;18221;38.704;0.152;2023-07-31T05:02:35;98973.06;;;33.11;46.70
10176;BME280;18221;38.704;0.152;2023-07-31T05:05:04;98962.78;;;33.22;46.50
10176;BME280;18221;38.704;0.152;2023-07-31T05:07:32;98962.25;;;33.20;46.82
10176;BME280;18221;38.704;0.152;2023-07-31T05:10:02;98968.59;;;33.20;46.75
10176;BME280;18221;38.704;0.152;2023-07-31T05:12:31;98960.66;;;33.14;46.22
10176;BME280;18221;38.704;0.152;2023-07-31T05:14:59;98958.44;;;33.16;46.66
10176;BME280;18221;38.704;0.152;2023-07-31T05:17:27;98956.03;;;33.04;46.76
10176;BME280;18221;38.704;0.152;2023-07-31T05:19:55;98956.03;;;33.04;46.83
10176;BME280;18221;38.704;0.152;2023-07-31T05:22:23;98956.34;;;32.97;46.75
10176;BME280;18221;38.704;0.152;2023-07-31T05:24:51;98962.66;;;33.03;46.60
10176;BME280;18221;38.704;0.152;2023-07-31T05:27:22;98958.53;;;33.01;46.27
10176;BME280;18221;38.704;0.152;2023-07-31T05:29:50;98962.38;;;33.00;46.20
10176;BME280;18221;38.704;0.152;2023-07-31T05:32:18;98958.53;;;33.06;46.05
10176;BME280;18221;38.704;0.152;2023-07-31T05:34:46;98958.84;;;32.94;46.63
10176;BME280;18221;38.704;0.152;2023-07-31T05:37:14;98956.41;;;32.92;46.35
10176;BME280;18221;38.704;0.152;2023-07-31T05:39:42;98959.09;;;32.97;46.68
10176;BME280;18221;38.704;0.152;2023-07-31T05:42:11;98966.88;;;32.85;46.89
10176;BME280;18221;38.704;0.152;2023-07-31T05:44:40;98969.59;;;32.90;46.69
10176;BME280;18221;38.704;0.152;2023-07-31T05:47:09;98964.34;;;32.94;46.33
10176;BME280;18221;38.704;0.152;2023-07-31T05:49:37;98967.88;;;33.00;46.50
10176;BME280;18221;38.704;0.152;2023-07-31T05:52:06;98961.81;;;33.03;46.76
10176;BME280;18221;38.704;0.152;2023-07-31T05:54:34;98959.31;;;33.06;46.64
10176;BME280;18221;38.704;0.152;2023-07-31T05:57:03;98961.84;;;32.97;46.73
10176;BME280;18221;38.704;0.152;2023-07-31T05:59:31;98959.97;;;32.88;46.75
10176;BME280;18221;38.704;0.152;2023-07-31T06:02:01;98959.78;;;32.79;47.20
10176;BME280;18221;38.704;0.152;2023-07-31T06:04:29;98964.16;;;32.80;47.40
10176;BME280;18221;38.704;0.152;2023-07-31T06:06:57;98966.88;;;32.85;46.91
10176;BME280;18221;38.704;0.152;2023-07-31T06:09:25;98963.31;;;32.85;47.47
10176;BME280;18221;38.704;0.152;2023-07-31T06:11:53;98961.34;;;32.90;46.89
10176;BME280;18221;38.704;0.152;2023-07-31T06:14:21;98951.69;;;32.93;46.94
10176;BME280;18221;38.704;0.152;2023-07-31T06:16:49;98960.50;;;32.95;46.93
10176;BME280;18221;38.704;0.152;2023-07-31T06:19:22;98961.34;;;32.90;46.91
10176;BME280;18221;38.704;0.152;2023-07-31T06:21:50;98967.97;;;32.89;47.14
10176;BME280;18221;38.704;0.152;2023-07-31T06:24:18;98958.00;;;32.93;47.14
10176;BME280;18221;38.704;0.152;2023-07-31T06:26:47;98964.84;;;33.01;46.76
10176;BME280;18221;38.704;0.152;2023-07-31T06:29:15;98962.09;;;33.01;47.05
10176;BME280;18221;38.704;0.152;2023-07-31T06:31:43;98969.28;;;32.97;46.90
10176;BME280;18221;38.704;0.152;2023-07-31T06:34:12;98973.91;;;33.07;47.02
10176;BME280;18221;38.704;0.152;2023-07-31T06:36:41;98975.47;;;33.18;46.56
10176;BME280;18221;38.704;0.152;2023-07-31T06:39:12;98977.94;;;33.19;46.97
10176;BME280;18221;38.704;0.152;2023-07-31T06:41:41;98973.78;;;33.22;46.90
10176;BME280;18221;38.704;0.152;2023-07-31T06:44:10;98977.28;;;33.32;46.31
10176;BME280;18221;38.704;0.152;2023-07-31T06:46:38;98975.88;;;33.35;46.16
10176;BME280;18221;38.704;0.152;2023-07-31T06:49:06;98967.03;;;33.38;45.73
10176;BME280;18221;38.704;0.152;2023-07-31T06:51:34;98979.97;;;33.37;46.19
10176;BME280;18221;38.704;0.152;2023-07-31T06:54:06;98975.84;;;33.40;46.38
10176;BME280;18221;38.704;0.152;2023-07-31T06:56:34;98978.88;;;33.38;45.65
10176;BME280;18221;38.704;0.152;2023-07-31T06:59:03;98977.88;;;33.29;45.83
10176;BME280;18221;38.704;0.152;2023-07-31T07:01:30;98983.00;;;33.41;45.66
10176;BME280;18221;38.704;0.152;2023-07-31T07:03:59;98982.88;;;33.56;45.28
10176;BME280;18221;38.704;0.152;2023-07-31T07:06:27;98983.19;;;33.49;45.16
10176;BME280;18221;38.704;0.152;2023-07-31T07:08:55;98980.16;;;33.51;45.84
10176;BME280;18221;38.704;0.152;2023-07-31T07:11:25;98988.59;;;33.65;45.55
10176;BME280;18221;38.704;0.152;2023-07-31T07:13:53;98992.13;;;33.70;45.16
10176;BME280;18221;38.704;0.152;2023-07-31T07:16:21;98989.72;;;33.87;44.66
10176;BME280;18221;38.704;0.152;2023-07-31T07:18:49;98994.31;;;33.97;44.27
10176;BME280;18221;38.704;0.152;2023-07-31T07:21:17;98986.81;;;34.07;44.00
10176;BME280;18221;38.704;0.152;2023-07-31T07:23:45;98995.88;;;34.08;43.60
10176;BME280;18221;38.704;0.152;2023-07-31T07:26:14;98994.41;;;34.15;43.81
10176;BME280;18221;38.704;0.152;2023-07-31T07:28:43;99001.56;;;34.17;43.78
10176;BME280;18221;38.704;0.152;2023-07-31T07:31:12;98997.47;;;34.14;43.24
10176;BME280;18221;38.704;0.152;2023-07-31T07:33:40;99000.47;;;34.18;43.83
10176;BME280;18221;38.704;0.152;2023-07-31T07:36:08;98998.94;;;34.30;43.93
10176;BME280;18221;38.704;0.152;2023-07-31T07:38:36;99005.72;;;34.38;42.97
10176;BME280;18221;38.704;0.152;2023-07-31T07:41:05;99004.31;;;34.40;43.16
10176;BME280;18221;38.704;0.152;2023-07-31T07:43:34;98997.00;;;34.07;43.14
10176;BME280;18221;38.704;0.152;2023-07-31T07:46:03;99004.72;;;34.05;43.17
10176;BME280;18221;38.704;0.152;2023-07-31T07:48:31;99002.97;;;34.14;43.42
10176;BME280;18221;38.704;0.152;2023-07-31T07:50:59;99006.88;;;34.08;43.50
10176;BME280;18221;38.704;0.152;2023-07-31T07:53:27;99003.84;;;34.09;43.46
10176;BME280;18221;38.704;0.152;2023-07-31T07:55:56;99009.94;;;34.06;43.29
10176;BME280;18221;38.704;0.152;2023-07-31T07:58:24;99013.78;;;34.05;42.94
10176;BME280;18221;38.704;0.152;2023-07-31T08:00:52;99005.00;;;34.03;43.15
10176;BME280;18221;38.704;0.152;2023-07-31T08:03:22;99021.28;;;34.00;43.36
10176;BME280;18221;38.704;0.152;2023-07-31T08:05:50;99016.13;;;33.93;42.84
10176;BME280;18221;38.704;0.152;2023-07-31T08:08:18;99014.09;;;34.04;43.15
10176;BME280;18221;38.704;0.152;2023-07-31T08:10:46;99017.84;;;33.84;43.59
10176;BME280;18221;38.704;0.152;2023-07-31T08:13:14;99016.22;;;33.83;43.13
10176;BME280;18221;38.704;0.152;2023-07-31T08:15:42;99014.72;;;33.96;43.38
10176;BME280;18221;38.704;0.152;2023-07-31T08:18:11;99011.38;;;34.28;42.83
10176;BME280;18221;38.704;0.152;2023-07-31T08:20:41;99000.97;;;34.86;42.04
10176;BME280;18221;38.704;0.152;2023-07-31T08:23:10;99011.91;;;35.47;40.22
10176;BME280;18221;38.704;0.152;2023-07-31T08:25:38;99009.22;;;35.92;38.86
10176;BME280;18221;38.704;0.152;2023-07-31T08:28:07;99012.13;;;36.28;38.00
10176;BME280;18221;38.704;0.152;2023-07-31T08:30:35;99013.25;;;36.41;37.67
10176;BME280;18221;38.704;0.152;2023-07-31T08:33:03;99017.53;;;36.33;37.33
10176;BME280;18221;38.704;0.152;2023-07-31T08:35:31;99017.75;;;36.37;37.36
10176;BME280;18221;38.704;0.152;2023-07-31T08:38:01;99024.59;;;36.12;37.96
10176;BME280;18221;38.704;0.152;2023-07-31T08:40:30;99016.50;;;36.02;38.24
10176;BME280;18221;38.704;0.152;2023-07-31T08:42:58;99018.75;;;35.68;38.54
10176;BME280;18221;38.704;0.152;2023-07-31T08:45:29;99027.28;;;35.53;38.93
10176;BME280;18221;38.704;0.152;2023-07-31T08:47:58;99019.78;;;35.40;39.09
10176;BME280;18221;38.704;0.152;2023-07-31T08:50:27;99021.72;;;35.20;39.42
10176;BME280;18221;38.704;0.152;2023-07-31T08:52:55;99023.22;;;35.13;40.09
10176;BME280;18221;38.704;0.152;2023-07-31T08:55:26;99030.25;;;35.05;40.28
10176;BME280;18221;38.704;0.152;2023-07-31T08:57:56;99027.84;;;34.99;40.18
10176;BME280;18221;38.704;0.152;2023-07-31T09:00:25;99025.13;;;34.75;40.62
10176;BME280;18221;38.704;0.152;2023-07-31T09:03:01;99022.72;;;34.68;41.03
10176;BME280;18221;38.704;0.152;2023-07-31T09:05:31;99025.84;;;34.62;41.18
10176;BME280;18221;38.704;0.152;2023-07-31T09:08:02;99025.94;;;34.57;41.66
10176;BME280;18221;38.704;0.152;2023-07-31T09:10:40;99029.50;;;34.52;41.41
10176;BME280;18221;38.704;0.152;2023-07-31T09:13:09;99032.28;;;34.52;41.49
10176;BME280;18221;38.704;0.152;2023-07-31T09:15:38;99030.66;;;34.51;42.04
10176;BME280;18221;38.704;0.152;2023-07-31T09:18:07;99031.22;;;34.48;41.97
10176;BME280;18221;38.704;0.152;2023-07-31T09:20:36;99032.59;;;34.51;42.17
10176;BME280;18221;38.704;0.152;2023-07-31T09:23:09;99028.38;;;34.35;42.37
10176;BME280;18221;38.704;0.152;2023-07-31T09:25:43;99035.81;;;34.34;42.44
10176;BME280;18221;38.704;0.152;2023-07-31T09:28:12;99034.25;;;34.28;42.59
10176;BME280;18221;38.704;0.152;2023-07-31T09:30:48;99034.94;;;34.39;42.61
10176;BME280;18221;38.704;0.152;2023-07-31T09:33:17;99035.28;;;34.32;43.15
10176;BME280;18221;38.704;0.152;2023-07-31T09:35:46;99031.88;;;34.40;42.58
10176;BME280;18221;38.704;0.152;2023-07-31T09:38:16;99031.63;;;34.37;42.97
10176;BME280;18221;38.704;0.152;2023-07-31T09:40:48;99040.22;;;34.35;43.20
10176;BME280;18221;38.704;0.152;2023-07-31T09:43:19;99027.44;;;34.21;43.28
10176;BME280;18221;38.704;0.152;2023-07-31T09:45:48;99036.69;;;34.06;43.71
10176;BME280;18221;38.704;0.152;2023-07-31T09:48:23;99030.16;;;33.97;43.85
10176;BME280;18221;38.704;0.152;2023-07-31T09:50:54;99028.78;;;33.94;44.38
10176;BME280;18221;38.704;0.152;2023-07-31T09:53:31;99037.53;;;34.01;44.14
10176;BME280;18221;38.704;0.152;2023-07-31T09:56:02;99039.25;;;33.92;44.04
10176;BME280;18221;38.704;0.152;2023-07-31T09:58:35;99042.63;;;33.89;44.42
10176;BME280;18221;38.704;0.152;2023-07-31T10:01:03;99036.34;;;33.84;44.33
10176;BME280;18221;38.704;0.152;2023-07-31T10:03:33;99030.84;;;33.84;44.71
10176;BME280;18221;38.704;0.152;2023-07-31T10:06:03;99041.91;;;33.79;44.69
10176;BME280;18221;38.704;0.152;2023-07-31T10:08:35;99037.75;;;33.81;44.72
10176;BME280;18221;38.704;0.152;2023-07-31T10:11:09;99042.91;;;33.88;45.14
10176;BME280;18221;38.704;0.152;2023-07-31T10:13:38;99045.38;;;33.89;44.47
10176;BME280;18221;38.704;0.152;2023-07-31T10:16:07;99040.41;;;33.91;44.64
10176;BME280;18221;38.704;0.152;2023-07-31T10:18:36;99045.50;;;34.03;44.01
10176;BME280;18221;38.704;0.152;2023-07-31T10:21:06;99041.84;;;34.12;44.07
10176;BME280;18221;38.704;0.152;2023-07-31T10:23:35;99045.09;;;34.20;43.20
10176;BME280;18221;38.704;0.152;2023-07-31T10:26:08;99036.44;;;34.26;43.43
10176;BME280;18221;38.704;0.152;2023-07-31T10:28:39;99043.28;;;34.34;43.19
10176;BME280;18221;38.704;0.152;2023-07-31T10:31:08;99040.69;;;34.42;43.22
10176;BME280;18221;38.704;0.152;2023-07-31T10:33:37;99038.63;;;34.53;42.99
10176;BME280;18221;38.704;0.152;2023-07-31T10:36:17;99037.47;;;34.59;43.13
10176;BME280;18221;38.704;0.152;2023-07-31T10:38:48;99035.09;;;34.71;42.37
10176;BME280;18221;38.704;0.152;2023-07-31T10:41:19;99043.63;;;34.93;42.12
10176;BME280;18221;38.704;0.152;2023-07-31T10:43:47;99034.78;;;34.96;42.27
10176;BME280;18221;38.704;0.152;2023-07-31T10:46:16;99040.34;;;34.91;41.80
10176;BME280;18221;38.704;0.152;2023-07-31T10:48:44;99036.50;;;35.11;41.17
10176;BME280;18221;38.704;0.152;2023-07-31T10:51:13;99036.19;;;35.31;41.16
10176;BME280;18221;38.704;0.152;2023-07-31T10:53:42;99034.41;;;35.40;41.10
10176;BME280;18221;38.704;0.152;2023-07-31T10:56:10;99031.97;;;35.71;40.56
10176;BME280;18221;38.704;0.152;2023-07-31T10:58:44;99029.22;;;35.71;40.21
10176;BME280;18221;38.704;0.152;2023-07-31T11:01:12;99030.44;;;35.78;40.37
10176;BME280;18221;38.704;0.152;2023-07-31T11:03:47;99025.06;;;35.87;40.10
10176;BME280;18221;38.704;0.152;2023-07-31T11:06:18;99026.75;;;36.15;39.88
10176;BME280;18221;38.704;0.152;2023-07-31T11:08:48;99027.38;;;36.12;40.15
10176;BME280;18221;38.704;0.152;2023-07-31T11:11:19;99021.69;;;35.90;40.16
10176;BME280;18221;38.704;0.152;2023-07-31T11:13:51;99023.91;;;35.88;40.25
10176;BME280;18221;38.704;0.152;2023-07-31T11:16:21;99015.41;;;36.03;39.90
10176;BME280;18221;38.704;0.152;2023-07-31T11:18:51;99014.50;;;35.89;40.57
10176;BME280;18221;38.704;0.152;2023-07-31T11:21:23;99010.63;;;35.90;40.46
10176;BME280;18221;38.704;0.152;2023-07-31T11:23:54;99009.66;;;36.13;39.54
10176;BME280;18221;38.704;0.152;2023-07-31T11:26:25;99005.56;;;36.11;39.20
10176;BME280;18221;38.704;0.152;2023-07-31T11:28:54;99005.97;;;36.04;38.68
10176;BME280;18221;38.704;0.152;2023-07-31T11:31:23;98998.59;;;36.13;39.22
10176;BME280;18221;38.704;0.152;2023-07-31T11:33:51;99002.59;;;36.34;38.52
10176;BME280;18221;38.704;0.152;2023-07-31T11:36:31;98996.13;;;36.25;38.86
10176;BME280;18221;38.704;0.152;2023-07-31T11:39:05;99000.34;;;36.36;38.63
10176;BME280;18221;38.704;0.152;2023-07-31T11:41:34;98992.88;;;36.50;38.19
10176;BME280;18221;38.704;0.152;2023-07-31T11:44:04;98991.03;;;36.19;38.79
10176;BME280;18221;38.704;0.152;2023-07-31T11:46:33;98987.94;;;36.20;38.91
10176;BME280;18221;38.704;0.152;2023-07-31T11:49:02;98990.19;;;36.45;38.88
10176;BME280;18221;38.704;0.152;2023-07-31T11:51:33;98986.38;;;36.69;38.27
10176;BME280;18221;38.704;0.152;2023-07-31T11:54:03;98972.13;;;36.75;38.01
10176;BME280;18221;38.704;0.152;2023-07-31T11:56:31;98959.47;;;36.61;38.62
10176;BME280;18221;38.704;0.152;2023-07-31T11:59:02;98963.19;;;36.92;38.32
10176;BME280;18221;38.704;0.152;2023-07-31T12:01:32;98964.38;;;36.64;38.59
10176;BME280;18221;38.704;0.152;2023-07-31T12:04:01;98959.88;;;36.40;38.21
10176;BME280;18221;38.704;0.152;2023-07-31T12:06:35;98965.72;;;36.25;38.36
10176;BME280;18221;38.704;0.152;2023-07-31T12:09:04;98958.66;;;36.19;37.47
10176;BME280;18221;38.704;0.152;2023-07-31T12:11:43;98947.41;;;36.16;37.30
10176;BME280;18221;38.704;0.152;2023-07-31T12:14:23;98944.84;;;36.06;38.25
10176;BME280;18221;38.704;0.152;2023-07-31T12:16:54;98935.81;;;36.00;38.31
10176;BME280;18221;38.704;0.152;2023-07-31T12:19:24;98938.63;;;36.14;38.41
10176;BME280;18221;38.704;0.152;2023-07-31T12:21:54;98936.13;;;36.39;38.47
10176;BME280;18221;38.704;0.152;2023-07-31T12:24:23;98928.44;;;36.36;37.99
10176;BME280;18221;38.704;0.152;2023-07-31T12:26:51;98934.09;;;36.31;38.21
10176;BME280;18221;38.704;0.152;2023-07-31T12:29:22;98927.41;;;36.32;38.38
10176;BME280;18221;38.704;0.152;2023-07-31T12:31:51;98932.22;;;36.27;38.49
10176;BME280;18221;38.704;0.152;2023-07-31T12:34:20;98927.94;;;36.07;38.80
10176;BME280;18221;38.704;0.152;2023-07-31T12:36:48;98926.09;;;35.89;39.50
10176;BME280;18221;38.704;0.152;2023-07-31T12:39:17;98923.03;;;35.77;39.76
10176;BME280;18221;38.704;0.152;2023-07-31T12:41:45;98925.69;;;35.50;40.53
10176;BME280;18221;38.704;0.152;2023-07-31T12:44:13;98915.84;;;35.44;40.48
10176;BME280;18221;38.704;0.152;2023-07-31T12:46:43;98923.13;;;35.40;40.40
10176;BME280;18221;38.704;0.152;2023-07-31T12:49:11;98914.44;;;35.46;40.40
10176;BME280;18221;38.704;0.152;2023-07-31T12:51:39;98917.19;;;35.32;40.92
10176;BME280;18221;38.704;0.152;2023-07-31T12:54:07;98912.16;;;35.34;40.66
10176;BME280;18221;38.704;0.152;2023-07-31T12:56:36;98911.84;;;35.36;40.46
10176;BME280;18221;38.704;0.152;2023-07-31T12:59:04;98908.28;;;35.35;40.36
10176;BME280;18221;38.704;0.152;2023-07-31T13:01:32;98909.41;;;35.34;39.96
10176;BME280;18221;38.704;0.152;2023-07-31T13:04:02;98898.31;;;35.21;40.53
10176;BME280;18221;38.704;0.152;2023-07-31T13:06:30;98897.72;;;35.24;41.00
10176;BME280;18221;38.704;0.152;2023-07-31T13:08:58;98893.47;;;35.45;40.29
10176;BME280;18221;38.704;0.152;2023-07-31T13:11:26;98890.41;;;35.47;40.73
10176;BME280;18221;38.704;0.152;2023-07-31T13:13:55;98888.63;;;35.83;39.71
10176;BME280;18221;38.704;0.152;2023-07-31T13:16:23;98882.25;;;35.96;39.36
10176;BME280;18221;38.704;0.152;2023-07-31T13:18:51;98874.22;;;36.13;39.02
10176;BME280;18221;38.704;0.152;2023-07-31T13:21:21;98872.28;;;36.14;38.89
10176;BME280;18221;38.704;0.152;2023-07-31T13:23:49;98878.97;;;36.35;38.76